createdAt,value
2023-05-21T00:05:15.643Z,102350.03
2023-05-21T00:10:36.126Z,102350.03
2023-05-21T00:15:56.433Z,102335.41
2023-05-21T00:21:17.689Z,102331.16
2023-05-21T00:26:38.410Z,102332.06
2023-05-21T00:31:59.278Z,102324.41
2023-05-21T00:37:20.667Z,102321.03
2023-05-21T00:42:41.582Z,102321.09
2023-05-21T00:48:04.211Z,102322.00
2023-05-21T00:53:25.657Z,102323.75
2023-05-21T00:58:46.185Z,102314.34
2023-05-21T01:04:06.620Z,102310.06
2023-05-21T01:09:28.375Z,102298.06
2023-05-21T01:14:49.836Z,102298.06
2023-05-21T01:20:11.216Z,102296.38
2023-05-21T01:25:31.839Z,102295.53
2023-05-21T01:30:52.847Z,102285.22
2023-05-21T01:36:24.549Z,102284.38
2023-05-21T01:41:46.209Z,102276.69
2023-05-21T01:47:07.714Z,102269.81
2023-05-21T01:52:28.069Z,102269.81
2023-05-21T01:57:48.719Z,102264.69
2023-05-21T02:03:09.293Z,102264.66
2023-05-21T02:08:31.257Z,102258.66
2023-05-21T02:13:52.442Z,102261.22
2023-05-21T02:19:13.410Z,102262.91
2023-05-21T02:24:33.960Z,102252.66
2023-05-21T02:29:54.770Z,102257.78
2023-05-21T02:35:18.031Z,102259.50
2023-05-21T02:40:39.015Z,102240.63
2023-05-21T02:45:59.516Z,102242.31
2023-05-21T02:51:21.664Z,102235.47
2023-05-21T02:56:42.839Z,102227.69
2023-05-21T03:02:03.535Z,102232.81
2023-05-21T03:07:24.471Z,102219.06
2023-05-21T03:12:45.598Z,102214.75
2023-05-21T03:18:06.122Z,102202.72
2023-05-21T03:23:26.958Z,102204.44
2023-05-21T03:28:48.018Z,102204.41
2023-05-21T03:34:09.384Z,102209.53
2023-05-21T03:39:31.226Z,102209.56
2023-05-21T03:44:52.748Z,102210.38
2023-05-21T03:50:44.753Z,102205.22
2023-05-21T03:56:05.728Z,102211.19
2023-05-21T04:01:28.312Z,102209.41
2023-05-21T04:06:51.039Z,102205.09
2023-05-21T04:12:11.800Z,102205.91
2023-05-21T04:17:33.368Z,102205.88
2023-05-21T04:22:54.119Z,102200.72
2023-05-21T04:28:20.287Z,102199.00
2023-05-21T04:33:42.178Z,102205.81
2023-05-21T04:39:02.700Z,102195.50
2023-05-21T04:44:24.001Z,102200.63
2023-05-21T04:49:46.745Z,102197.97
2023-05-21T04:55:08.100Z,102202.19
2023-05-21T05:00:28.422Z,102194.41
2023-05-21T05:05:49.193Z,102192.59
2023-05-21T05:11:09.765Z,102183.94
2023-05-21T05:16:31.159Z,102174.44
2023-05-21T05:21:52.028Z,102166.56
2023-05-21T05:27:13.338Z,102157.94
2023-05-21T05:32:34.149Z,102162.06
2023-05-21T05:37:55.205Z,102162.66
2023-05-21T05:43:15.857Z,102172.72
2023-05-21T05:48:37.100Z,102164.63
2023-05-21T05:53:58.147Z,102163.28
2023-05-21T05:59:18.534Z,102170.81
2023-05-21T06:04:42.841Z,102171.63
2023-05-21T06:10:03.412Z,102165.56
2023-05-21T06:15:24.484Z,102168.75
2023-05-21T06:20:45.204Z,102169.47
2023-05-21T06:26:06.333Z,102164.19
2023-05-21T06:31:26.970Z,102166.41
2023-05-21T06:36:48.478Z,102173.09
2023-05-21T06:42:08.908Z,102158.94
2023-05-21T06:50:53.433Z,102157.00
2023-05-21T06:56:14.117Z,102154.63
2023-05-21T07:01:36.937Z,102154.88
2023-05-21T07:06:57.699Z,102154.34
2023-05-21T07:12:18.445Z,102152.66
2023-05-21T07:17:39.611Z,102145.63
2023-05-21T07:23:00.160Z,102150.53
2023-05-21T07:28:20.774Z,102154.81
2023-05-21T07:33:41.787Z,102160.19
2023-05-21T07:39:05.003Z,102154.88
2023-05-21T07:44:26.411Z,102151.34
2023-05-21T07:49:47.165Z,102158.69
2023-05-21T07:55:09.107Z,102161.81
2023-05-21T08:00:43.069Z,102156.78
2023-05-21T08:06:04.911Z,102162.59
2023-05-21T08:11:26.960Z,102161.50
2023-05-21T08:16:48.497Z,102153.75
2023-05-21T08:22:10.107Z,102144.91
2023-05-21T08:27:36.478Z,102152.38
2023-05-21T08:32:58.676Z,102155.28
2023-05-21T08:38:21.278Z,102167.50
2023-05-21T08:43:59.668Z,102147.03
2023-05-21T08:49:27.452Z,102154.28
2023-05-21T08:54:50.765Z,102150.06
2023-05-21T09:00:12.285Z,102148.81
2023-05-21T09:18:33.257Z,102150.19
2023-05-21T09:24:09.399Z,102150.50
2023-05-21T09:29:29.946Z,102152.22
2023-05-21T09:34:50.623Z,102153.28
2023-05-21T09:40:13.336Z,102141.03
2023-05-21T09:45:35.137Z,102152.16
2023-05-21T09:51:07.755Z,102136.47
2023-05-21T09:56:32.565Z,102135.13
2023-05-21T10:01:55.302Z,102145.59
2023-05-21T10:07:18.815Z,102129.94
2023-05-21T10:12:54.653Z,102121.97
2023-05-21T10:18:16.755Z,102131.59
2023-05-21T10:23:37.815Z,102116.78
2023-05-21T10:29:00.455Z,102113.66
2023-05-21T10:34:21.785Z,102107.16
2023-05-21T10:39:43.818Z,102096.34
2023-05-21T10:45:04.045Z,102104.72
2023-05-21T10:50:44.758Z,102106.69
2023-05-21T10:56:11.633Z,102093.63
2023-05-21T11:01:36.348Z,102088.06
2023-05-21T11:06:58.962Z,102085.59
2023-05-21T11:12:23.028Z,102079.38
2023-05-21T11:17:44.495Z,102087.00
2023-05-21T11:23:05.192Z,102074.59
2023-05-21T11:28:34.828Z,102071.59
2023-05-21T11:34:14.399Z,102068.16
2023-05-21T11:39:40.273Z,102062.91
2023-05-21T11:45:04.177Z,102056.34
2023-05-21T11:50:27.329Z,102063.75
2023-05-21T11:55:48.011Z,102067.50
2023-05-21T12:01:08.474Z,102064.94
2023-05-21T12:06:31.328Z,102069.50
2023-05-21T12:11:53.181Z,102058.47
2023-05-21T12:17:16.664Z,102062.56
2023-05-21T12:22:42.376Z,102054.59
2023-05-21T12:28:05.324Z,102053.31
2023-05-21T12:33:34.076Z,102042.00
2023-05-21T12:38:54.838Z,102059.69
2023-05-21T12:44:15.577Z,102057.88
2023-05-21T12:49:44.738Z,102044.03
2023-05-21T12:55:06.552Z,102047.44
2023-05-21T13:00:28.264Z,102042.19
2023-05-21T13:05:49.057Z,102038.28
2023-05-21T13:11:09.799Z,102039.84
2023-05-21T13:16:30.494Z,102033.53
2023-05-21T13:21:51.326Z,102029.41
2023-05-21T13:27:11.961Z,102024.00
2023-05-21T13:32:32.561Z,102016.31
2023-05-21T13:37:53.303Z,102022.22
2023-05-21T13:43:13.847Z,102014.22
2023-05-21T13:48:34.240Z,102019.00
2023-05-21T13:53:56.217Z,102010.44
2023-05-21T13:59:17.452Z,102014.75
2023-05-21T14:04:39.498Z,102012.59
2023-05-21T14:10:00.590Z,102006.50
2023-05-21T14:15:21.277Z,102006.63
2023-05-21T14:20:42.129Z,102010.72
2023-05-21T14:26:02.868Z,102001.44
2023-05-21T14:31:24.164Z,102009.06
2023-05-21T14:36:44.557Z,102006.50
2023-05-21T14:42:05.665Z,102006.75
2023-05-21T14:47:26.278Z,102003.47
2023-05-21T14:52:46.521Z,102002.72
2023-05-21T14:58:07.515Z,101996.56
2023-05-21T15:03:28.323Z,101986.44
2023-05-21T15:08:49.281Z,101989.28
2023-05-21T15:14:09.689Z,102001.06
2023-05-21T15:19:30.340Z,101988.00
2023-05-21T15:24:50.717Z,101987.09
2023-05-21T15:30:12.075Z,101979.88
2023-05-21T15:35:32.856Z,101973.28
2023-05-21T15:40:53.743Z,101980.00
2023-05-21T15:46:14.358Z,101978.09
2023-05-21T15:51:34.797Z,101968.28
2023-05-21T15:56:55.225Z,101971.25
2023-05-21T16:02:16.300Z,101968.09
2023-05-21T16:07:38.226Z,101968.88
2023-05-21T16:13:00.092Z,101959.31
2023-05-21T16:18:20.982Z,101958.09
2023-05-21T16:23:42.157Z,101966.16
2023-05-21T16:29:02.537Z,101960.22
2023-05-21T16:34:23.083Z,101965.59
2023-05-21T16:39:43.458Z,101949.25
2023-05-21T16:45:04.739Z,101949.34
2023-05-21T16:50:25.633Z,101948.53
2023-05-21T16:55:46.041Z,101941.22
2023-05-21T17:01:07.419Z,101946.56
2023-05-21T17:06:28.494Z,101945.63
2023-05-21T17:11:49.061Z,101938.91
2023-05-21T17:17:09.601Z,101936.53
2023-05-21T17:22:30.305Z,101936.88
2023-05-21T17:27:53.106Z,101926.59
2023-05-21T17:33:14.001Z,101939.31
2023-05-21T17:38:34.820Z,101927.94
2023-05-21T17:43:55.426Z,101929.72
2023-05-21T17:49:16.689Z,101922.38
2023-05-21T17:54:37.401Z,101924.94
2023-05-21T17:59:57.945Z,101919.59
2023-05-21T18:05:18.643Z,101926.28
2023-05-21T18:10:39.345Z,101927.09
2023-05-21T18:15:59.964Z,101925.97
2023-05-21T18:21:20.359Z,101918.63
2023-05-21T18:26:43.214Z,101918.03
2023-05-21T18:32:04.065Z,101923.50
2023-05-21T18:37:24.451Z,101925.94
2023-05-21T18:42:45.210Z,101923.03
2023-05-21T18:48:06.470Z,101925.66
2023-05-21T18:53:26.893Z,101926.25
2023-05-21T18:58:47.659Z,101925.13
2023-05-21T19:04:07.962Z,101921.25
2023-05-21T19:09:28.616Z,101916.28
2023-05-21T19:14:49.304Z,101916.38
2023-05-21T19:20:10.406Z,101923.47
2023-05-21T19:25:33.926Z,101919.97
2023-05-21T19:30:54.618Z,101929.25
2023-05-21T19:36:14.918Z,101935.19
2023-05-21T19:41:35.650Z,101941.03
2023-05-21T19:46:56.167Z,101945.25
2023-05-21T19:52:17.077Z,101946.72
2023-05-21T19:57:38.237Z,101946.50
2023-05-21T20:02:58.752Z,101941.81
2023-05-21T20:08:18.928Z,101948.44
2023-05-21T20:13:40.637Z,101945.50
2023-05-21T20:23:20.803Z,101943.72
2023-05-21T20:28:42.958Z,101936.19
2023-05-21T20:34:07.875Z,101944.25
2023-05-21T20:39:29.773Z,101939.47
2023-05-21T20:44:52.826Z,101943.44
2023-05-21T20:50:14.712Z,101942.00
2023-05-21T20:55:35.625Z,101942.25
2023-05-21T21:00:55.979Z,101945.25
2023-05-21T21:06:18.871Z,101943.91
2023-05-21T21:11:39.651Z,101951.19
2023-05-21T21:17:00.495Z,101955.72
2023-05-21T21:22:21.520Z,101959.47
2023-05-21T21:27:42.529Z,101952.78
2023-05-21T21:33:03.076Z,101948.72
2023-05-21T21:38:24.023Z,101949.75
2023-05-21T21:43:44.290Z,101959.44
2023-05-21T21:49:04.829Z,101944.94
2023-05-21T21:54:25.516Z,101948.56
2023-05-21T21:59:46.256Z,101953.78
2023-05-21T22:05:09.297Z,101950.50
2023-05-21T22:10:33.481Z,101963.56
2023-05-21T22:15:55.152Z,101951.63
2023-05-21T22:21:18.550Z,101948.41
2023-05-21T22:26:40.072Z,101948.50
2023-05-21T22:32:00.938Z,101936.53
2023-05-21T22:37:23.510Z,101936.63
2023-05-21T22:42:45.801Z,101927.22
2023-05-21T22:48:07.452Z,101930.81
2023-05-21T22:53:28.183Z,101923.13
2023-05-21T22:58:49.176Z,101924.91
2023-05-21T23:04:09.697Z,101917.19
2023-05-21T23:09:30.628Z,101913.84
2023-05-21T23:14:51.158Z,101907.91
2023-05-21T23:20:12.311Z,101901.13
2023-05-21T23:25:33.995Z,101902.13
2023-05-21T23:30:54.791Z,101897.06
2023-05-21T23:36:15.433Z,101883.31
2023-05-21T23:41:35.992Z,101886.78
2023-05-21T23:46:56.421Z,101882.53
2023-05-21T23:52:18.196Z,101873.97
2023-05-21T23:57:38.603Z,101873.97
